Accueil
METAR-TAF:

METAR-TAF

Aéroports :

Aéroport Konrad-Adenauer de Cologne/Bonn

Cologne, Allemagne

latitude: 50-52N, longitude: 007-10E, altitude: 91 m

Observation

Le bulletin a été fait il y a 24 minutes, à 16:20 UTC
Vent 9 kt de nord-est, variant entre nord et est
Température 5°C
Humidité 45%
Pression 1029 hPa
Visibilité 10 km ou plus
Quelques nuages à une hauteur de 4400 ft

METAR: EDDK 051620Z 04009KT 360V080 9999 FEW044 05/M06 Q1029 NOSIG

Heure: 17:44 (16:44 UTC)

Prévision

Le bulletin a été fait il y a 5 heures et 44 minutes, à 11:00 UTC
Prévision valable du 05 à 12 UTC au 06 à 18 UTC
Vent 10 kt de nord/nord-est
Visibilité 10 km ou plus
Quelques nuages à une hauteur de 2500 ft
Evoluant progressivement
du 05 à 17 UTC au 05 à 19 UTC
Vent 2 kt de direction variable
Temporairement
du 06 à 11 UTC au 06 à 18 UTC
Vent 5 kt de nord-est

TAF: EDDK 051100Z 0512/0618 02010KT 9999 FEW025 BECMG 0517/0519 VRB02KT TEMPO 0611/0618 05005KT

Observations et prévisions météorologiques de plus de 4000 aéroports (messages METAR et TAF).

Les stations disponibles sont représentées par des disques jaunes et rouges sur la carte.

Passer la souris dessus pour voir le nom de la station.

Cliquer dessus pour voir les observations et prévisions météorologiques.

Pour changer de carte: cliquez sur les boutons verts avec une croix noire pour zoomer, sur le bouton vert avec un tiret pour effectuer un zoom arrière, ou sur les flèches vertes pour les cartes adjacentes.


METAR-TAF: